createdAt,value
2023-04-19T00:01:08.777Z,12.83
2023-04-19T00:03:35.574Z,12.70
2023-04-19T00:06:02.640Z,12.03
2023-04-19T00:08:29.140Z,12.77
2023-04-19T00:10:58.124Z,12.47
2023-04-19T00:13:24.591Z,12.07
2023-04-19T00:15:51.106Z,12.23
2023-04-19T00:18:20.281Z,12.77
2023-04-19T00:20:46.804Z,13.17
2023-04-19T00:23:13.339Z,12.50
2023-04-19T00:25:39.914Z,12.73
2023-04-19T00:28:06.553Z,12.23
2023-04-19T00:30:33.134Z,12.47
2023-04-19T00:32:59.681Z,12.77
2023-04-19T00:35:26.213Z,13.23
2023-04-19T00:37:52.776Z,13.37
2023-04-19T00:40:19.413Z,12.93
2023-04-19T00:42:45.915Z,13.20
2023-04-19T00:45:12.492Z,13.60
2023-04-19T00:47:39.213Z,13.70
2023-04-19T00:50:06.174Z,13.00
2023-04-19T00:52:33.091Z,12.97
2023-04-19T00:54:59.976Z,13.60
2023-04-19T00:57:26.576Z,13.27
2023-04-19T00:59:54.532Z,12.63
2023-04-19T01:02:22.237Z,13.10
2023-04-19T01:04:48.914Z,13.23
2023-04-19T01:07:15.451Z,12.33
2023-04-19T01:09:43.821Z,12.97
2023-04-19T01:12:10.408Z,12.17
2023-04-19T01:14:36.861Z,13.03
2023-04-19T01:17:03.340Z,12.80
2023-04-19T01:19:30.168Z,12.07
2023-04-19T01:21:58.432Z,12.70
2023-04-19T01:24:25.652Z,12.70
2023-04-19T01:26:52.263Z,12.47
2023-04-19T01:29:22.266Z,12.10
2023-04-19T01:31:53.879Z,12.30
2023-04-19T01:34:20.675Z,11.63
2023-04-19T01:36:47.200Z,12.10
2023-04-19T01:39:13.767Z,12.47
2023-04-19T01:41:40.325Z,12.80
2023-04-19T01:44:06.856Z,12.83
2023-04-19T01:46:33.464Z,12.30
2023-04-19T01:49:00.100Z,11.70
2023-04-19T01:51:26.616Z,12.27
2023-04-19T01:53:54.854Z,11.53
2023-04-19T01:56:24.747Z,12.27
2023-04-19T01:58:51.261Z,12.87
2023-04-19T02:01:17.832Z,11.83
2023-04-19T02:03:44.781Z,11.50
2023-04-19T02:06:14.183Z,12.50
2023-04-19T02:08:41.789Z,11.80
2023-04-19T02:11:09.031Z,11.73
2023-04-19T02:13:35.555Z,12.20
2023-04-19T02:16:06.203Z,12.57
2023-04-19T02:18:32.911Z,12.70
2023-04-19T02:20:59.651Z,12.57
2023-04-19T02:23:26.364Z,12.17
2023-04-19T02:25:53.619Z,11.73
2023-04-19T02:28:20.189Z,11.80
2023-04-19T02:30:46.882Z,12.27
2023-04-19T02:33:13.535Z,11.80
2023-04-19T02:35:40.114Z,12.50
2023-04-19T02:38:06.614Z,11.50
2023-04-19T02:40:33.231Z,11.53
2023-04-19T02:42:59.717Z,12.50
2023-04-19T02:45:26.654Z,11.87
2023-04-19T02:47:53.216Z,11.30
2023-04-19T02:50:19.759Z,11.13
2023-04-19T02:52:46.248Z,11.07
2023-04-19T02:55:12.733Z,11.40
2023-04-19T02:57:39.347Z,11.57
2023-04-19T03:00:06.617Z,11.20
2023-04-19T03:02:33.248Z,9.93
2023-04-19T03:04:59.778Z,10.23
2023-04-19T03:07:26.722Z,10.03
2023-04-19T03:09:53.261Z,9.77
2023-04-19T03:12:19.757Z,8.77
2023-04-19T03:14:46.275Z,9.07
2023-04-19T03:17:12.940Z,8.50
2023-04-19T03:19:39.416Z,7.63
2023-04-19T03:22:05.926Z,8.27
2023-04-19T03:24:34.375Z,8.07
2023-04-19T03:27:02.884Z,8.00
2023-04-19T03:29:29.361Z,8.07
2023-04-19T03:31:56.464Z,7.80
2023-04-19T03:34:22.927Z,8.13
2023-04-19T03:36:49.730Z,7.47
2023-04-19T03:39:16.241Z,7.57
2023-04-19T03:41:42.743Z,7.07
2023-04-19T03:44:09.279Z,7.40
2023-04-19T03:46:36.111Z,6.77
2023-04-19T03:49:02.717Z,7.00
2023-04-19T03:51:29.259Z,6.70
2023-04-19T03:53:55.726Z,6.80
2023-04-19T03:56:22.218Z,7.10
2023-04-19T03:58:51.379Z,6.57
2023-04-19T04:01:21.629Z,6.40
2023-04-19T04:03:50.825Z,6.83
2023-04-19T04:06:17.596Z,6.30
2023-04-19T04:08:44.137Z,6.70
2023-04-19T04:11:10.725Z,6.60
2023-04-19T04:13:39.450Z,5.87
2023-04-19T04:16:06.180Z,6.07
2023-04-19T04:18:32.652Z,6.27
2023-04-19T04:20:59.177Z,6.37
2023-04-19T04:23:28.552Z,5.77
2023-04-19T04:26:01.017Z,5.70
2023-04-19T04:28:28.255Z,5.27
2023-04-19T04:31:00.500Z,5.33
2023-04-19T04:33:28.128Z,5.50
2023-04-19T04:35:55.387Z,4.93
2023-04-19T04:38:24.940Z,5.30
2023-04-19T04:40:55.286Z,4.97
2023-04-19T04:43:23.011Z,5.27
2023-04-19T04:45:49.605Z,4.87
2023-04-19T04:48:16.373Z,4.70
2023-04-19T04:50:42.910Z,5.00
2023-04-19T04:53:12.320Z,4.47
2023-04-19T04:55:39.444Z,4.80
2023-04-19T04:58:05.980Z,4.97
2023-04-19T05:00:32.981Z,4.67
2023-04-19T05:03:00.226Z,4.60
2023-04-19T05:05:26.896Z,5.03
2023-04-19T05:07:53.870Z,4.90
2023-04-19T05:10:22.962Z,5.20
2023-04-19T05:12:49.465Z,4.83
2023-04-19T05:15:16.002Z,4.90
2023-04-19T05:17:43.337Z,4.67
2023-04-19T05:20:10.061Z,4.40
2023-04-19T05:22:37.045Z,4.90
2023-04-19T05:25:06.341Z,4.77
2023-04-19T05:27:32.874Z,5.33
2023-04-19T05:29:59.409Z,5.83
2023-04-19T05:32:26.729Z,6.20
2023-04-19T05:34:53.582Z,5.50
2023-04-19T05:37:20.077Z,5.63
2023-04-19T05:39:46.621Z,5.50
2023-04-19T05:42:13.083Z,5.73
2023-04-19T05:44:39.587Z,5.47
2023-04-19T05:47:06.075Z,6.30
2023-04-19T05:49:32.545Z,5.33
2023-04-19T05:51:59.062Z,6.40
2023-04-19T05:54:25.624Z,5.97
2023-04-19T05:56:52.520Z,6.17
2023-04-19T05:59:19.123Z,6.23
2023-04-19T06:01:46.097Z,5.83
2023-04-19T06:04:15.687Z,5.47
2023-04-19T06:06:42.727Z,5.50
2023-04-19T06:09:09.290Z,5.73
2023-04-19T06:11:47.138Z,5.07
2023-04-19T06:14:17.392Z,5.47
2023-04-19T06:16:44.234Z,5.83
2023-04-19T06:19:11.064Z,5.83
2023-04-19T06:21:37.637Z,6.20
2023-04-19T06:24:04.481Z,5.80
2023-04-19T06:26:31.226Z,5.47
2023-04-19T06:28:57.720Z,5.27
2023-04-19T06:31:24.395Z,5.57
2023-04-19T06:33:51.179Z,5.30
2023-04-19T06:36:17.669Z,5.23
2023-04-19T06:38:47.375Z,5.03
2023-04-19T06:41:13.878Z,6.10
2023-04-19T06:43:41.029Z,4.60
2023-04-19T06:46:10.113Z,4.87
2023-04-19T06:48:36.766Z,4.53
2023-04-19T06:51:03.366Z,6.13
2023-04-19T06:53:29.950Z,4.97
2023-04-19T06:55:59.120Z,5.03
2023-04-19T06:58:25.776Z,5.23
2023-04-19T07:00:52.380Z,4.97
2023-04-19T07:03:19.464Z,5.03
2023-04-19T07:05:46.478Z,4.70
2023-04-19T07:08:13.005Z,4.37
2023-04-19T07:10:39.665Z,4.80
2023-04-19T07:13:06.147Z,4.53
2023-04-19T07:15:32.624Z,4.33
2023-04-19T07:17:59.159Z,4.47
2023-04-19T07:20:25.927Z,4.00
2023-04-19T07:22:52.817Z,4.60
2023-04-19T07:25:19.308Z,4.70
2023-04-19T07:27:46.325Z,4.70
2023-04-19T07:30:13.536Z,4.30
2023-04-19T07:32:40.322Z,4.37
2023-04-19T07:35:07.313Z,4.63
2023-04-19T07:37:33.873Z,4.40
2023-04-19T07:40:01.025Z,4.20
2023-04-19T07:42:29.924Z,4.07
2023-04-19T07:44:56.719Z,4.00
2023-04-19T07:47:23.183Z,4.20
2023-04-19T07:49:53.437Z,4.50
2023-04-19T07:52:19.970Z,3.77
2023-04-19T07:54:47.290Z,4.17
2023-04-19T07:57:13.759Z,4.50
2023-04-19T07:59:40.367Z,3.90
2023-04-19T08:02:07.791Z,4.20
2023-04-19T08:04:34.798Z,3.70
2023-04-19T08:07:01.462Z,3.60
2023-04-19T08:09:28.019Z,4.07
2023-04-19T08:11:54.551Z,3.60
2023-04-19T08:14:34.918Z,3.77
2023-04-19T08:17:23.806Z,3.50
2023-04-19T08:19:53.441Z,3.80
2023-04-19T08:22:20.608Z,3.77
2023-04-19T08:24:49.642Z,3.70
2023-04-19T08:27:16.170Z,3.33
2023-04-19T08:29:42.799Z,3.20
2023-04-19T08:32:11.810Z,3.33
2023-04-19T08:34:39.304Z,3.70
2023-04-19T08:37:07.385Z,3.10
2023-04-19T08:39:34.758Z,3.13
2023-04-19T08:42:11.130Z,3.13
2023-04-19T08:45:09.306Z,2.97
2023-04-19T08:47:51.872Z,3.23
2023-04-19T08:50:32.041Z,3.33
2023-04-19T08:55:33.269Z,3.20
2023-04-19T08:57:59.786Z,3.20
2023-04-19T09:00:26.372Z,3.47
2023-04-19T09:02:54.686Z,3.00
2023-04-19T09:05:21.696Z,3.00
2023-04-19T09:07:48.609Z,3.37
2023-04-19T09:10:16.366Z,3.00
2023-04-19T09:12:43.383Z,3.10
2023-04-19T09:15:10.324Z,3.47
2023-04-19T09:17:37.410Z,3.00
2023-04-19T09:20:05.036Z,3.03
2023-04-19T09:22:31.882Z,3.37
2023-04-19T09:27:32.425Z,2.73
2023-04-19T09:30:00.648Z,2.90
2023-04-19T09:32:27.867Z,3.20
2023-04-19T09:34:55.472Z,2.47
2023-04-19T09:37:41.523Z,2.70
2023-04-19T09:40:22.259Z,2.70
2023-04-19T09:45:29.040Z,2.57
2023-04-19T09:48:04.028Z,2.30
2023-04-19T09:50:31.734Z,2.23
2023-04-19T09:52:59.726Z,2.27
2023-04-19T09:55:29.022Z,2.17
2023-04-19T09:57:56.916Z,2.03
2023-04-19T10:00:23.550Z,2.40
2023-04-19T10:02:58.513Z,2.20
2023-04-19T10:05:26.754Z,1.70
2023-04-19T10:07:59.544Z,2.20
2023-04-19T10:10:41.334Z,2.30
2023-04-19T10:13:18.956Z,2.40
2023-04-19T10:15:52.412Z,2.27
2023-04-19T10:18:22.177Z,2.47
2023-04-19T10:21:06.794Z,2.20
2023-04-19T10:23:33.612Z,2.53
2023-04-19T10:26:00.185Z,2.40
2023-04-19T10:28:31.014Z,2.80
2023-04-19T10:31:01.906Z,2.40
2023-04-19T10:33:29.816Z,2.80
2023-04-19T10:35:57.753Z,2.70
2023-04-19T10:38:36.820Z,2.90
2023-04-19T10:41:04.424Z,2.53
2023-04-19T10:43:34.834Z,2.60
2023-04-19T10:46:02.348Z,2.60
2023-04-19T10:48:33.644Z,2.57
2023-04-19T10:51:00.111Z,2.73
2023-04-19T10:53:46.363Z,2.63
2023-04-19T10:56:13.048Z,2.70
2023-04-19T10:58:58.234Z,2.43
2023-04-19T11:01:43.686Z,2.87
2023-04-19T11:04:11.606Z,2.43
2023-04-19T11:06:53.783Z,2.87
2023-04-19T11:09:23.635Z,2.60
2023-04-19T11:11:50.402Z,2.83
2023-04-19T11:14:20.638Z,2.60
2023-04-19T11:16:47.295Z,2.70
2023-04-19T11:19:17.700Z,2.73
2023-04-19T11:21:48.105Z,2.80
2023-04-19T11:24:24.024Z,2.60
2023-04-19T11:26:51.308Z,2.53
2023-04-19T11:29:20.075Z,2.63
2023-04-19T11:31:46.969Z,2.50
2023-04-19T11:34:13.814Z,2.50
2023-04-19T11:36:50.636Z,2.77
2023-04-19T11:39:17.262Z,6.00
2023-04-19T11:41:43.880Z,2.37
2023-04-19T11:44:14.447Z,3.77
2023-04-19T11:46:41.499Z,2.33
2023-04-19T11:49:08.151Z,2.50
2023-04-19T11:51:34.683Z,2.67
2023-04-19T11:54:01.167Z,2.60
2023-04-19T11:56:28.461Z,2.63
2023-04-19T11:58:57.434Z,3.00
2023-04-19T12:01:25.910Z,2.63
2023-04-19T12:03:53.793Z,2.80
2023-04-19T12:06:28.462Z,2.63
2023-04-19T12:08:55.950Z,2.80
2023-04-19T12:11:26.925Z,3.37
2023-04-19T12:14:12.922Z,2.83
2023-04-19T12:16:39.571Z,3.30
2023-04-19T12:19:16.361Z,2.70
2023-04-19T12:21:43.512Z,3.00
2023-04-19T12:24:10.474Z,3.10
2023-04-19T12:26:37.013Z,2.93
2023-04-19T12:29:03.937Z,3.00
2023-04-19T12:31:32.352Z,2.50
2023-04-19T12:33:58.945Z,3.17
2023-04-19T12:36:25.493Z,2.77
2023-04-19T12:38:52.027Z,2.87
2023-04-19T12:41:19.522Z,2.90
2023-04-19T12:43:46.090Z,3.20
2023-04-19T12:46:15.132Z,3.20
2023-04-19T12:48:41.629Z,3.13
2023-04-19T12:51:09.122Z,3.30
2023-04-19T12:53:35.874Z,3.23
2023-04-19T12:56:02.410Z,3.00
2023-04-19T12:58:28.946Z,2.83
2023-04-19T13:00:55.482Z,3.23
2023-04-19T13:03:22.286Z,3.10
2023-04-19T13:05:49.306Z,2.70
2023-04-19T13:08:15.982Z,2.90
2023-04-19T13:10:42.466Z,2.87
2023-04-19T13:13:08.985Z,3.30
2023-04-19T13:15:35.561Z,2.50
2023-04-19T13:18:02.078Z,3.00
2023-04-19T13:20:29.548Z,3.20
2023-04-19T13:22:56.070Z,3.07
2023-04-19T13:25:22.676Z,2.83
2023-04-19T13:27:49.155Z,3.17
2023-04-19T13:30:16.061Z,2.83
2023-04-19T13:32:42.851Z,3.33
2023-04-19T13:35:09.517Z,3.17
2023-04-19T13:37:35.990Z,3.03
2023-04-19T13:40:17.351Z,3.03
2023-04-19T13:42:44.987Z,3.00
2023-04-19T13:45:11.686Z,3.73
2023-04-19T13:47:38.224Z,3.40
2023-04-19T13:50:04.908Z,2.60
2023-04-19T13:52:31.461Z,2.90
2023-04-19T13:54:57.917Z,2.70
2023-04-19T13:57:24.429Z,2.70
2023-04-19T13:59:50.917Z,2.83
2023-04-19T14:02:17.608Z,2.97
2023-04-19T14:04:44.274Z,2.90
2023-04-19T14:07:10.993Z,2.97
2023-04-19T14:09:37.487Z,2.83
2023-04-19T14:12:04.676Z,3.03
2023-04-19T14:14:32.433Z,3.20
2023-04-19T14:16:59.096Z,3.03
2023-04-19T14:19:25.684Z,2.73
2023-04-19T14:21:52.233Z,3.03
2023-04-19T14:24:21.663Z,2.67
2023-04-19T14:26:56.841Z,2.80
2023-04-19T14:29:33.644Z,2.90
2023-04-19T14:32:13.439Z,3.13
2023-04-19T14:34:49.343Z,2.63
2023-04-19T14:37:16.071Z,2.73
2023-04-19T14:39:42.556Z,2.50
2023-04-19T14:42:09.068Z,2.73
2023-04-19T14:44:35.995Z,3.10
2023-04-19T14:47:05.083Z,2.40
2023-04-19T14:49:31.608Z,2.60
2023-04-19T14:51:58.159Z,2.47
2023-04-19T14:54:25.062Z,2.93
2023-04-19T14:56:52.836Z,2.47
2023-04-19T14:59:19.317Z,2.40
2023-04-19T15:01:45.878Z,2.60
2023-04-19T15:04:12.591Z,2.70
2023-04-19T15:06:41.132Z,2.77
2023-04-19T15:09:07.730Z,2.47
2023-04-19T15:11:34.647Z,2.30
2023-04-19T15:14:01.188Z,2.40
2023-04-19T15:16:27.880Z,2.63
2023-04-19T15:18:54.550Z,2.27
2023-04-19T15:21:24.174Z,2.43
2023-04-19T15:23:51.221Z,2.73
2023-04-19T15:26:17.711Z,2.60
2023-04-19T15:28:44.411Z,2.50
2023-04-19T15:31:11.056Z,2.80
2023-04-19T15:33:38.060Z,2.13
2023-04-19T15:36:04.735Z,2.40
2023-04-19T15:38:31.638Z,2.23
2023-04-19T15:40:58.946Z,2.80
2023-04-19T15:43:25.776Z,2.30
2023-04-19T15:45:52.390Z,2.37
2023-04-19T15:48:20.580Z,2.50
2023-04-19T15:50:47.249Z,2.27
2023-04-19T15:53:13.955Z,2.53
2023-04-19T15:55:41.601Z,2.10
2023-04-19T15:58:08.355Z,2.30
2023-04-19T16:00:34.913Z,2.40
2023-04-19T16:03:01.717Z,2.17
2023-04-19T16:05:28.599Z,2.37
2023-04-19T16:08:01.974Z,2.30
2023-04-19T16:10:31.060Z,2.53
2023-04-19T16:12:57.878Z,2.10
2023-04-19T16:15:24.700Z,2.13
2023-04-19T16:17:52.030Z,2.47
2023-04-19T16:20:19.374Z,2.43
2023-04-19T16:22:45.901Z,2.30
2023-04-19T16:25:14.222Z,2.10
2023-04-19T16:27:41.427Z,2.10
2023-04-19T16:30:08.300Z,1.80
2023-04-19T16:32:37.428Z,2.07
2023-04-19T16:35:05.466Z,2.20
2023-04-19T16:37:32.574Z,1.97
2023-04-19T16:39:59.756Z,1.67
2023-04-19T16:42:26.255Z,1.80
2023-04-19T16:44:52.796Z,2.00
2023-04-19T16:47:19.301Z,2.03
2023-04-19T16:49:47.953Z,1.90
2023-04-19T16:52:14.435Z,1.87
2023-04-19T16:54:40.925Z,1.87
2023-04-19T16:57:07.518Z,1.73
2023-04-19T16:59:34.005Z,1.90
2023-04-19T17:02:02.445Z,1.77
2023-04-19T17:04:29.565Z,1.70
2023-04-19T17:06:56.334Z,1.90
2023-04-19T17:09:25.916Z,2.00
2023-04-19T17:11:52.418Z,1.63
2023-04-19T17:14:19.030Z,1.73
2023-04-19T17:16:45.565Z,2.17
2023-04-19T17:19:12.109Z,1.90
2023-04-19T17:21:38.589Z,1.90
2023-04-19T17:24:05.185Z,1.77
2023-04-19T17:26:31.675Z,1.87
2023-04-19T17:28:59.862Z,1.60
2023-04-19T17:31:27.795Z,1.80
2023-04-19T17:33:54.354Z,1.90
2023-04-19T17:36:20.882Z,1.87
2023-04-19T17:38:47.568Z,2.13
2023-04-19T17:41:17.503Z,1.73
2023-04-19T17:43:44.604Z,1.90
2023-04-19T17:46:11.799Z,2.00
2023-04-19T17:48:40.728Z,2.00
2023-04-19T17:51:09.559Z,2.00
2023-04-19T17:53:36.225Z,2.10
2023-04-19T17:56:03.095Z,2.07
2023-04-19T17:58:29.688Z,2.03
2023-04-19T18:00:56.235Z,2.00
2023-04-19T18:03:22.953Z,2.33
2023-04-19T18:05:49.668Z,2.17
2023-04-19T18:08:16.278Z,2.63
2023-04-19T18:10:42.771Z,2.60
2023-04-19T18:13:09.268Z,2.93
2023-04-19T18:15:36.293Z,2.90
2023-04-19T18:18:03.271Z,2.60
2023-04-19T18:20:29.904Z,2.63
2023-04-19T18:22:59.155Z,2.70
2023-04-19T18:25:25.880Z,3.17
2023-04-19T18:27:52.379Z,3.20
2023-04-19T18:30:18.982Z,2.30
2023-04-19T18:32:46.319Z,2.47
2023-04-19T18:35:12.976Z,2.73
2023-04-19T18:37:39.511Z,3.10
2023-04-19T18:40:07.386Z,2.30
2023-04-19T18:42:34.165Z,2.60
2023-04-19T18:45:00.745Z,2.80
2023-04-19T18:47:27.447Z,3.03
2023-04-19T18:50:04.392Z,2.60
2023-04-19T18:52:32.055Z,2.80
2023-04-19T18:54:58.619Z,2.90
2023-04-19T18:57:27.401Z,3.33
2023-04-19T18:59:56.046Z,2.80
2023-04-19T19:02:22.659Z,3.50
2023-04-19T19:04:56.820Z,3.23
2023-04-19T19:07:35.641Z,3.00
2023-04-19T19:10:17.272Z,2.90
2023-04-19T19:12:45.688Z,3.00
2023-04-19T19:15:12.405Z,3.13
2023-04-19T19:17:38.961Z,3.53
2023-04-19T19:20:06.910Z,3.00
2023-04-19T19:22:34.119Z,3.40
2023-04-19T19:25:01.296Z,3.30
2023-04-19T19:27:27.883Z,3.80
2023-04-19T19:29:54.754Z,3.60
2023-04-19T19:32:21.558Z,3.53
2023-04-19T19:37:18.500Z,3.37
2023-04-19T19:39:46.348Z,3.63
2023-04-19T19:42:15.570Z,3.40
2023-04-19T19:44:42.235Z,3.37
2023-04-19T19:47:10.512Z,3.40
2023-04-19T19:49:51.448Z,3.10
2023-04-19T19:52:24.580Z,3.40
2023-04-19T19:54:52.103Z,3.30
2023-04-19T19:58:14.148Z,2.73
2023-04-19T20:02:54.181Z,3.37
2023-04-19T20:05:22.954Z,3.00
2023-04-19T20:10:19.856Z,3.07
2023-04-19T20:12:47.152Z,3.20
2023-04-19T20:15:13.770Z,3.40
2023-04-19T20:17:40.801Z,3.07
2023-04-19T20:20:09.116Z,3.17
2023-04-19T20:22:35.845Z,3.00
2023-04-19T20:25:02.445Z,3.17
2023-04-19T20:27:28.958Z,2.83
2023-04-19T20:29:56.814Z,3.10
2023-04-19T20:32:23.460Z,2.90
2023-04-19T20:34:50.079Z,3.10
2023-04-19T20:37:17.795Z,3.27
2023-04-19T20:39:44.288Z,2.83
2023-04-19T20:42:10.806Z,3.33
2023-04-19T20:44:37.581Z,2.83
2023-04-19T20:47:04.110Z,3.20
2023-04-19T20:49:30.610Z,3.10
2023-04-19T20:51:57.095Z,2.60
2023-04-19T20:54:23.611Z,3.13
2023-04-19T20:56:50.127Z,2.83
2023-04-19T20:59:16.779Z,2.60
2023-04-19T21:01:43.522Z,2.93
2023-04-19T21:04:10.263Z,2.80
2023-04-19T21:06:36.872Z,2.90
2023-04-19T21:09:04.601Z,3.00
2023-04-19T21:11:31.110Z,3.10
2023-04-19T21:13:57.599Z,3.13
2023-04-19T21:16:24.204Z,2.93
2023-04-19T21:18:50.736Z,2.90
2023-04-19T21:21:17.259Z,2.83
2023-04-19T21:23:43.748Z,2.87
2023-04-19T21:26:11.330Z,2.90
2023-04-19T21:28:38.014Z,2.80
2023-04-19T21:31:04.697Z,3.00
2023-04-19T21:33:31.236Z,2.80
2023-04-19T21:35:57.762Z,2.53
2023-04-19T21:38:24.361Z,2.73
2023-04-19T21:40:52.149Z,2.63
2023-04-19T21:43:18.818Z,2.60
2023-04-19T21:45:45.348Z,3.10
2023-04-19T21:48:12.276Z,2.47
2023-04-19T21:50:38.835Z,2.87
2023-04-19T21:53:05.446Z,3.00
2023-04-19T21:55:32.538Z,3.03
2023-04-19T21:57:59.156Z,2.90
2023-04-19T22:00:25.725Z,2.90
2023-04-19T22:02:52.314Z,3.03
2023-04-19T22:05:18.928Z,2.73
2023-04-19T22:07:45.503Z,2.90
2023-04-19T22:10:13.840Z,2.70
2023-04-19T22:12:51.300Z,2.90
2023-04-19T22:15:26.007Z,2.83
2023-04-19T22:17:52.600Z,2.80
2023-04-19T22:20:19.204Z,2.80
2023-04-19T22:22:45.782Z,3.13
2023-04-19T22:25:12.322Z,2.97
2023-04-19T22:27:38.993Z,3.00
2023-04-19T22:30:05.822Z,2.70
2023-04-19T22:32:32.362Z,2.63
2023-04-19T22:34:58.911Z,2.97
2023-04-19T22:37:25.525Z,2.93
2023-04-19T22:39:52.017Z,3.03
2023-04-19T22:42:19.086Z,2.93
2023-04-19T22:44:45.608Z,2.50
2023-04-19T22:47:13.224Z,3.10
2023-04-19T22:49:43.243Z,3.57
2023-04-19T22:52:10.053Z,3.10
2023-04-19T22:54:38.772Z,3.07
2023-04-19T22:57:05.686Z,3.10
2023-04-19T22:59:32.183Z,3.00
2023-04-19T23:01:59.172Z,3.10
2023-04-19T23:04:25.938Z,2.70
2023-04-19T23:06:52.796Z,2.63
2023-04-19T23:09:19.683Z,2.90
2023-04-19T23:11:47.347Z,3.07
2023-04-19T23:14:14.112Z,2.77
2023-04-19T23:16:41.104Z,3.30
2023-04-19T23:19:07.843Z,3.00
2023-04-19T23:21:35.086Z,2.90
2023-04-19T23:24:01.615Z,3.10
2023-04-19T23:26:28.347Z,2.63
2023-04-19T23:28:54.848Z,2.97
2023-04-19T23:31:21.421Z,3.00
2023-04-19T23:33:48.524Z,2.73
2023-04-19T23:36:15.044Z,3.00
2023-04-19T23:38:41.550Z,2.93
2023-04-19T23:41:10.385Z,2.73
2023-04-19T23:43:39.159Z,3.10
2023-04-19T23:46:06.247Z,3.10
2023-04-19T23:48:33.150Z,3.40
2023-04-19T23:50:59.703Z,3.27
2023-04-19T23:53:26.269Z,3.27
2023-04-19T23:55:52.867Z,3.10
2023-04-19T23:58:19.342Z,2.63
